sensor_id;sensor_type;location;lat;lon;timestamp;temperature;humidity
4530;DHT22;2277;51.626;7.516;2023-08-21T00:01:25;22.90;99.90
4530;DHT22;2277;51.626;7.516;2023-08-21T00:03:51;22.90;99.90
4530;DHT22;2277;51.626;7.516;2023-08-21T00:06:16;23.00;99.90
4530;DHT22;2277;51.626;7.516;2023-08-21T00:08:42;23.00;99.90
4530;DHT22;2277;51.626;7.516;2023-08-21T00:11:07;22.90;99.90
4530;DHT22;2277;51.626;7.516;2023-08-21T00:13:33;22.90;99.90
4530;DHT22;2277;51.626;7.516;2023-08-21T00:15:58;22.90;99.90
4530;DHT22;2277;51.626;7.516;2023-08-21T00:18:24;22.90;99.90
4530;DHT22;2277;51.626;7.516;2023-08-21T00:20:50;22.90;99.90
4530;DHT22;2277;51.626;7.516;2023-08-21T00:23:15;22.90;99.90
4530;DHT22;2277;51.626;7.516;2023-08-21T00:25:46;22.90;99.90
4530;DHT22;2277;51.626;7.516;2023-08-21T00:28:11;22.90;99.90
4530;DHT22;2277;51.626;7.516;2023-08-21T00:30:37;22.90;99.90
4530;DHT22;2277;51.626;7.516;2023-08-21T00:33:03;22.80;99.90
4530;DHT22;2277;51.626;7.516;2023-08-21T00:35:28;22.80;99.90
4530;DHT22;2277;51.626;7.516;2023-08-21T00:37:54;22.90;99.90
4530;DHT22;2277;51.626;7.516;2023-08-21T00:40:20;22.90;99.90
4530;DHT22;2277;51.626;7.516;2023-08-21T00:42:45;22.80;99.90
4530;DHT22;2277;51.626;7.516;2023-08-21T00:45:11;22.80;99.90
4530;DHT22;2277;51.626;7.516;2023-08-21T00:47:37;22.80;99.90
4530;DHT22;2277;51.626;7.516;2023-08-21T00:50:03;22.80;99.90
4530;DHT22;2277;51.626;7.516;2023-08-21T00:52:31;22.80;99.90
4530;DHT22;2277;51.626;7.516;2023-08-21T00:54:57;22.80;99.90
4530;DHT22;2277;51.626;7.516;2023-08-21T00:57:23;22.80;99.90
4530;DHT22;2277;51.626;7.516;2023-08-21T00:59:49;22.80;99.90
4530;DHT22;2277;51.626;7.516;2023-08-21T01:02:15;22.80;99.90
4530;DHT22;2277;51.626;7.516;2023-08-21T01:04:40;22.70;99.90
4530;DHT22;2277;51.626;7.516;2023-08-21T01:07:06;22.80;99.90
4530;DHT22;2277;51.626;7.516;2023-08-21T01:10:07;22.70;99.90
4530;DHT22;2277;51.626;7.516;2023-08-21T01:12:41;22.70;99.90
4530;DHT22;2277;51.626;7.516;2023-08-21T01:15:12;22.70;99.90
4530;DHT22;2277;51.626;7.516;2023-08-21T01:17:39;22.70;99.90
4530;DHT22;2277;51.626;7.516;2023-08-21T01:20:07;22.70;99.90
4530;DHT22;2277;51.626;7.516;2023-08-21T01:22:40;22.70;99.90
4530;DHT22;2277;51.626;7.516;2023-08-21T01:25:06;22.70;99.90
4530;DHT22;2277;51.626;7.516;2023-08-21T01:27:33;22.70;99.90
4530;DHT22;2277;51.626;7.516;2023-08-21T01:30:03;22.70;99.90
4530;DHT22;2277;51.626;7.516;2023-08-21T01:32:32;22.70;99.90
4530;DHT22;2277;51.626;7.516;2023-08-21T01:34:59;22.70;99.90
4530;DHT22;2277;51.626;7.516;2023-08-21T01:37:26;22.70;99.90
4530;DHT22;2277;51.626;7.516;2023-08-21T01:39:52;22.60;99.90
4530;DHT22;2277;51.626;7.516;2023-08-21T01:42:17;22.60;99.90
4530;DHT22;2277;51.626;7.516;2023-08-21T01:44:43;22.60;99.90
4530;DHT22;2277;51.626;7.516;2023-08-21T01:47:11;22.60;99.90
4530;DHT22;2277;51.626;7.516;2023-08-21T01:49:37;22.50;99.90
4530;DHT22;2277;51.626;7.516;2023-08-21T01:52:03;22.50;99.90
4530;DHT22;2277;51.626;7.516;2023-08-21T01:54:28;22.50;99.90
4530;DHT22;2277;51.626;7.516;2023-08-21T01:56:54;22.50;99.90
4530;DHT22;2277;51.626;7.516;2023-08-21T01:59:20;22.60;99.90
4530;DHT22;2277;51.626;7.516;2023-08-21T02:01:45;22.50;99.90
4530;DHT22;2277;51.626;7.516;2023-08-21T02:04:11;22.50;99.90
4530;DHT22;2277;51.626;7.516;2023-08-21T02:06:36;22.50;99.90
4530;DHT22;2277;51.626;7.516;2023-08-21T02:09:02;22.50;99.90
4530;DHT22;2277;51.626;7.516;2023-08-21T02:11:28;22.50;99.90
4530;DHT22;2277;51.626;7.516;2023-08-21T02:13:53;22.50;99.90
4530;DHT22;2277;51.626;7.516;2023-08-21T02:16:19;22.40;99.90
4530;DHT22;2277;51.626;7.516;2023-08-21T02:18:45;22.50;99.90
4530;DHT22;2277;51.626;7.516;2023-08-21T02:21:11;22.40;99.90
4530;DHT22;2277;51.626;7.516;2023-08-21T02:23:37;22.40;99.90
4530;DHT22;2277;51.626;7.516;2023-08-21T02:26:02;22.30;99.90
4530;DHT22;2277;51.626;7.516;2023-08-21T02:28:28;22.30;99.90
4530;DHT22;2277;51.626;7.516;2023-08-21T02:30:53;22.30;99.90
4530;DHT22;2277;51.626;7.516;2023-08-21T02:33:19;22.30;99.90
4530;DHT22;2277;51.626;7.516;2023-08-21T02:35:45;22.30;99.90
4530;DHT22;2277;51.626;7.516;2023-08-21T02:38:10;22.30;99.90
4530;DHT22;2277;51.626;7.516;2023-08-21T02:40:36;22.30;99.90
4530;DHT22;2277;51.626;7.516;2023-08-21T02:43:01;22.30;99.90
4530;DHT22;2277;51.626;7.516;2023-08-21T02:45:27;22.20;99.90
4530;DHT22;2277;51.626;7.516;2023-08-21T02:47:53;22.20;99.90
4530;DHT22;2277;51.626;7.516;2023-08-21T02:50:18;22.20;99.90
4530;DHT22;2277;51.626;7.516;2023-08-21T02:52:44;22.20;99.90
4530;DHT22;2277;51.626;7.516;2023-08-21T02:55:09;22.20;99.90
4530;DHT22;2277;51.626;7.516;2023-08-21T02:57:35;22.20;99.90
4530;DHT22;2277;51.626;7.516;2023-08-21T03:00:01;22.20;99.90
4530;DHT22;2277;51.626;7.516;2023-08-21T03:02:26;22.20;99.90
4530;DHT22;2277;51.626;7.516;2023-08-21T03:04:52;22.20;99.90
4530;DHT22;2277;51.626;7.516;2023-08-21T03:07:18;22.20;99.90
4530;DHT22;2277;51.626;7.516;2023-08-21T03:09:45;22.20;99.90
4530;DHT22;2277;51.626;7.516;2023-08-21T03:12:12;22.20;99.90
4530;DHT22;2277;51.626;7.516;2023-08-21T03:14:38;22.10;99.90
4530;DHT22;2277;51.626;7.516;2023-08-21T03:17:03;22.10;99.90
4530;DHT22;2277;51.626;7.516;2023-08-21T03:19:29;22.10;99.90
4530;DHT22;2277;51.626;7.516;2023-08-21T03:21:55;22.00;99.90
4530;DHT22;2277;51.626;7.516;2023-08-21T03:24:20;22.00;99.90
4530;DHT22;2277;51.626;7.516;2023-08-21T03:26:46;22.00;99.90
4530;DHT22;2277;51.626;7.516;2023-08-21T03:29:11;22.00;99.90
4530;DHT22;2277;51.626;7.516;2023-08-21T03:31:37;21.90;99.90
4530;DHT22;2277;51.626;7.516;2023-08-21T03:34:02;21.90;99.90
4530;DHT22;2277;51.626;7.516;2023-08-21T03:36:28;21.80;99.90
4530;DHT22;2277;51.626;7.516;2023-08-21T03:39:00;21.80;99.90
4530;DHT22;2277;51.626;7.516;2023-08-21T03:41:26;21.80;99.90
4530;DHT22;2277;51.626;7.516;2023-08-21T03:43:52;21.80;99.90
4530;DHT22;2277;51.626;7.516;2023-08-21T03:46:18;21.70;99.90
4530;DHT22;2277;51.626;7.516;2023-08-21T03:48:44;21.60;99.90
4530;DHT22;2277;51.626;7.516;2023-08-21T03:51:09;21.60;99.90
4530;DHT22;2277;51.626;7.516;2023-08-21T03:53:35;21.60;99.90
4530;DHT22;2277;51.626;7.516;2023-08-21T03:56:00;21.60;99.90
4530;DHT22;2277;51.626;7.516;2023-08-21T03:58:26;21.60;99.90
4530;DHT22;2277;51.626;7.516;2023-08-21T04:00:55;21.60;99.90
4530;DHT22;2277;51.626;7.516;2023-08-21T04:03:21;21.60;99.90
4530;DHT22;2277;51.626;7.516;2023-08-21T04:05:47;21.60;99.90
4530;DHT22;2277;51.626;7.516;2023-08-21T04:08:13;21.50;99.90
4530;DHT22;2277;51.626;7.516;2023-08-21T04:10:38;21.50;99.90
4530;DHT22;2277;51.626;7.516;2023-08-21T04:13:05;21.50;99.90
4530;DHT22;2277;51.626;7.516;2023-08-21T04:15:31;21.40;99.90
4530;DHT22;2277;51.626;7.516;2023-08-21T04:17:56;21.30;99.90
4530;DHT22;2277;51.626;7.516;2023-08-21T04:20:22;21.30;99.90
4530;DHT22;2277;51.626;7.516;2023-08-21T04:22:49;21.20;99.90
4530;DHT22;2277;51.626;7.516;2023-08-21T04:25:15;21.10;99.90
4530;DHT22;2277;51.626;7.516;2023-08-21T04:27:41;21.20;99.90
4530;DHT22;2277;51.626;7.516;2023-08-21T04:30:08;21.00;99.90
4530;DHT22;2277;51.626;7.516;2023-08-21T04:32:34;21.00;99.90
4530;DHT22;2277;51.626;7.516;2023-08-21T04:34:59;20.90;99.90
4530;DHT22;2277;51.626;7.516;2023-08-21T04:37:25;20.90;99.90
4530;DHT22;2277;51.626;7.516;2023-08-21T04:39:51;21.00;99.90
4530;DHT22;2277;51.626;7.516;2023-08-21T04:42:17;21.10;99.90
4530;DHT22;2277;51.626;7.516;2023-08-21T04:44:43;21.10;99.90
4530;DHT22;2277;51.626;7.516;2023-08-21T04:47:22;21.10;99.90
4530;DHT22;2277;51.626;7.516;2023-08-21T04:49:49;21.10;99.90
4530;DHT22;2277;51.626;7.516;2023-08-21T04:52:15;21.10;99.90
4530;DHT22;2277;51.626;7.516;2023-08-21T04:54:40;21.00;99.90
4530;DHT22;2277;51.626;7.516;2023-08-21T04:57:06;21.00;99.90
4530;DHT22;2277;51.626;7.516;2023-08-21T04:59:31;21.10;99.90
4530;DHT22;2277;51.626;7.516;2023-08-21T05:01:57;21.10;99.90
4530;DHT22;2277;51.626;7.516;2023-08-21T05:04:23;21.10;99.90
4530;DHT22;2277;51.626;7.516;2023-08-21T05:06:48;21.10;99.90
4530;DHT22;2277;51.626;7.516;2023-08-21T05:09:14;21.10;99.90
4530;DHT22;2277;51.626;7.516;2023-08-21T05:11:40;21.20;99.90
4530;DHT22;2277;51.626;7.516;2023-08-21T05:14:06;21.10;99.90
4530;DHT22;2277;51.626;7.516;2023-08-21T05:16:32;21.10;99.90
4530;DHT22;2277;51.626;7.516;2023-08-21T05:18:57;21.10;99.90
4530;DHT22;2277;51.626;7.516;2023-08-21T05:21:23;21.20;99.90
4530;DHT22;2277;51.626;7.516;2023-08-21T05:23:48;21.20;99.90
4530;DHT22;2277;51.626;7.516;2023-08-21T05:26:14;21.10;99.90
4530;DHT22;2277;51.626;7.516;2023-08-21T05:28:39;21.10;99.90
4530;DHT22;2277;51.626;7.516;2023-08-21T05:31:05;21.00;99.90
4530;DHT22;2277;51.626;7.516;2023-08-21T05:33:31;21.00;99.90
4530;DHT22;2277;51.626;7.516;2023-08-21T05:35:57;20.80;99.90
4530;DHT22;2277;51.626;7.516;2023-08-21T05:38:22;20.60;99.90
4530;DHT22;2277;51.626;7.516;2023-08-21T05:40:48;20.60;99.90
4530;DHT22;2277;51.626;7.516;2023-08-21T05:43:15;20.70;99.90
4530;DHT22;2277;51.626;7.516;2023-08-21T05:45:41;20.80;99.90
4530;DHT22;2277;51.626;7.516;2023-08-21T05:48:06;21.00;99.90
4530;DHT22;2277;51.626;7.516;2023-08-21T05:50:32;21.00;99.90
4530;DHT22;2277;51.626;7.516;2023-08-21T05:52:58;21.10;99.90
4530;DHT22;2277;51.626;7.516;2023-08-21T05:55:23;21.20;99.90
4530;DHT22;2277;51.626;7.516;2023-08-21T05:57:49;21.20;99.90
4530;DHT22;2277;51.626;7.516;2023-08-21T06:00:15;21.30;99.90
4530;DHT22;2277;51.626;7.516;2023-08-21T06:02:41;21.30;99.90
4530;DHT22;2277;51.626;7.516;2023-08-21T06:05:09;21.40;99.90
4530;DHT22;2277;51.626;7.516;2023-08-21T06:07:35;21.50;99.90
4530;DHT22;2277;51.626;7.516;2023-08-21T06:10:00;21.50;99.90
4530;DHT22;2277;51.626;7.516;2023-08-21T06:12:26;21.50;99.90
4530;DHT22;2277;51.626;7.516;2023-08-21T06:14:52;21.60;99.90
4530;DHT22;2277;51.626;7.516;2023-08-21T06:17:17;21.60;99.90
4530;DHT22;2277;51.626;7.516;2023-08-21T06:19:43;21.70;99.90
4530;DHT22;2277;51.626;7.516;2023-08-21T06:22:09;21.80;99.90
4530;DHT22;2277;51.626;7.516;2023-08-21T06:24:34;21.80;99.90
4530;DHT22;2277;51.626;7.516;2023-08-21T06:27:00;21.80;99.90
4530;DHT22;2277;51.626;7.516;2023-08-21T06:29:26;21.80;99.90
4530;DHT22;2277;51.626;7.516;2023-08-21T06:31:51;21.90;99.90
4530;DHT22;2277;51.626;7.516;2023-08-21T06:34:17;22.00;99.90
4530;DHT22;2277;51.626;7.516;2023-08-21T06:36:42;22.10;99.90
4530;DHT22;2277;51.626;7.516;2023-08-21T06:39:08;22.10;99.90
4530;DHT22;2277;51.626;7.516;2023-08-21T06:41:33;22.20;99.90
4530;DHT22;2277;51.626;7.516;2023-08-21T06:43:59;22.30;99.90
4530;DHT22;2277;51.626;7.516;2023-08-21T06:46:24;22.40;99.90
4530;DHT22;2277;51.626;7.516;2023-08-21T06:48:50;22.50;99.90
4530;DHT22;2277;51.626;7.516;2023-08-21T06:51:16;22.60;99.90
4530;DHT22;2277;51.626;7.516;2023-08-21T06:53:41;22.70;99.90
4530;DHT22;2277;51.626;7.516;2023-08-21T06:56:07;22.80;99.90
4530;DHT22;2277;51.626;7.516;2023-08-21T06:58:33;22.90;99.90
4530;DHT22;2277;51.626;7.516;2023-08-21T07:01:00;22.90;99.90
4530;DHT22;2277;51.626;7.516;2023-08-21T07:03:26;23.00;99.90
4530;DHT22;2277;51.626;7.516;2023-08-21T07:05:58;23.00;99.90
4530;DHT22;2277;51.626;7.516;2023-08-21T07:08:25;23.10;99.90
4530;DHT22;2277;51.626;7.516;2023-08-21T07:10:52;23.30;99.90
4530;DHT22;2277;51.626;7.516;2023-08-21T07:13:17;23.30;99.90
4530;DHT22;2277;51.626;7.516;2023-08-21T07:15:43;23.40;99.90
4530;DHT22;2277;51.626;7.516;2023-08-21T07:18:09;23.40;99.90
4530;DHT22;2277;51.626;7.516;2023-08-21T07:20:34;23.50;99.90
4530;DHT22;2277;51.626;7.516;2023-08-21T07:23:01;23.60;99.90
4530;DHT22;2277;51.626;7.516;2023-08-21T07:25:26;23.80;99.90
4530;DHT22;2277;51.626;7.516;2023-08-21T07:27:53;23.90;99.90
4530;DHT22;2277;51.626;7.516;2023-08-21T07:30:19;24.10;99.90
4530;DHT22;2277;51.626;7.516;2023-08-21T07:32:46;24.20;99.90
4530;DHT22;2277;51.626;7.516;2023-08-21T07:35:11;24.40;99.90
4530;DHT22;2277;51.626;7.516;2023-08-21T07:37:37;24.50;99.90
4530;DHT22;2277;51.626;7.516;2023-08-21T07:40:04;24.60;99.90
4530;DHT22;2277;51.626;7.516;2023-08-21T07:42:30;24.60;99.90
4530;DHT22;2277;51.626;7.516;2023-08-21T07:44:56;24.60;99.90
4530;DHT22;2277;51.626;7.516;2023-08-21T07:47:21;24.60;99.90
4530;DHT22;2277;51.626;7.516;2023-08-21T07:49:47;24.50;99.90
4530;DHT22;2277;51.626;7.516;2023-08-21T07:52:12;24.50;99.90
4530;DHT22;2277;51.626;7.516;2023-08-21T07:54:38;24.80;99.90
4530;DHT22;2277;51.626;7.516;2023-08-21T07:57:03;24.90;99.90
4530;DHT22;2277;51.626;7.516;2023-08-21T07:59:29;25.10;99.90
4530;DHT22;2277;51.626;7.516;2023-08-21T08:01:55;25.20;99.90
4530;DHT22;2277;51.626;7.516;2023-08-21T08:04:21;25.20;99.90
4530;DHT22;2277;51.626;7.516;2023-08-21T08:06:47;25.30;99.90
4530;DHT22;2277;51.626;7.516;2023-08-21T08:09:13;25.30;99.90
4530;DHT22;2277;51.626;7.516;2023-08-21T08:11:38;25.10;99.90
4530;DHT22;2277;51.626;7.516;2023-08-21T08:14:04;25.20;99.90
4530;DHT22;2277;51.626;7.516;2023-08-21T08:16:29;25.40;99.90
4530;DHT22;2277;51.626;7.516;2023-08-21T08:18:55;25.50;99.90
4530;DHT22;2277;51.626;7.516;2023-08-21T08:21:21;25.70;99.90
4530;DHT22;2277;51.626;7.516;2023-08-21T08:23:46;25.90;99.90
4530;DHT22;2277;51.626;7.516;2023-08-21T08:26:12;26.00;99.90
4530;DHT22;2277;51.626;7.516;2023-08-21T08:28:37;26.20;99.90
4530;DHT22;2277;51.626;7.516;2023-08-21T08:31:03;26.30;99.90
4530;DHT22;2277;51.626;7.516;2023-08-21T08:33:29;26.40;99.90
4530;DHT22;2277;51.626;7.516;2023-08-21T08:35:54;26.60;99.90
4530;DHT22;2277;51.626;7.516;2023-08-21T08:38:20;26.90;99.90
4530;DHT22;2277;51.626;7.516;2023-08-21T08:40:46;27.10;99.90
4530;DHT22;2277;51.626;7.516;2023-08-21T08:43:12;27.30;99.90
4530;DHT22;2277;51.626;7.516;2023-08-21T08:45:40;27.60;99.90
4530;DHT22;2277;51.626;7.516;2023-08-21T08:48:06;27.70;99.90
4530;DHT22;2277;51.626;7.516;2023-08-21T08:50:33;27.90;99.90
4530;DHT22;2277;51.626;7.516;2023-08-21T08:53:00;28.00;99.90
4530;DHT22;2277;51.626;7.516;2023-08-21T08:55:26;28.00;99.90
4530;DHT22;2277;51.626;7.516;2023-08-21T08:57:55;28.30;99.90
4530;DHT22;2277;51.626;7.516;2023-08-21T09:00:21;28.50;99.90
4530;DHT22;2277;51.626;7.516;2023-08-21T09:02:47;28.70;99.90
4530;DHT22;2277;51.626;7.516;2023-08-21T09:05:13;28.80;99.90
4530;DHT22;2277;51.626;7.516;2023-08-21T09:07:39;29.00;99.90
4530;DHT22;2277;51.626;7.516;2023-08-21T09:10:13;29.10;99.90
4530;DHT22;2277;51.626;7.516;2023-08-21T09:12:39;29.20;99.90
4530;DHT22;2277;51.626;7.516;2023-08-21T09:15:07;29.30;99.90
4530;DHT22;2277;51.626;7.516;2023-08-21T09:17:33;29.40;99.90
4530;DHT22;2277;51.626;7.516;2023-08-21T09:20:06;29.40;99.90
4530;DHT22;2277;51.626;7.516;2023-08-21T09:22:33;29.40;99.90
4530;DHT22;2277;51.626;7.516;2023-08-21T09:25:06;29.50;99.90
4530;DHT22;2277;51.626;7.516;2023-08-21T09:27:36;29.60;99.90
4530;DHT22;2277;51.626;7.516;2023-08-21T09:30:09;29.70;99.90
4530;DHT22;2277;51.626;7.516;2023-08-21T09:32:55;29.90;99.90
4530;DHT22;2277;51.626;7.516;2023-08-21T09:35:22;30.10;99.90
4530;DHT22;2277;51.626;7.516;2023-08-21T09:37:48;30.30;99.90
4530;DHT22;2277;51.626;7.516;2023-08-21T09:40:15;30.30;99.90
4530;DHT22;2277;51.626;7.516;2023-08-21T09:42:41;30.40;99.90
4530;DHT22;2277;51.626;7.516;2023-08-21T09:45:07;30.50;99.90
4530;DHT22;2277;51.626;7.516;2023-08-21T09:47:33;30.70;99.90
4530;DHT22;2277;51.626;7.516;2023-08-21T09:49:59;30.70;99.90
4530;DHT22;2277;51.626;7.516;2023-08-21T09:52:26;30.70;99.90
4530;DHT22;2277;51.626;7.516;2023-08-21T09:54:56;30.80;99.90
4530;DHT22;2277;51.626;7.516;2023-08-21T09:57:23;30.80;99.90
4530;DHT22;2277;51.626;7.516;2023-08-21T09:59:52;30.90;99.90
4530;DHT22;2277;51.626;7.516;2023-08-21T10:02:18;31.20;99.90
4530;DHT22;2277;51.626;7.516;2023-08-21T10:04:45;31.30;99.90
4530;DHT22;2277;51.626;7.516;2023-08-21T10:07:12;31.40;99.90
4530;DHT22;2277;51.626;7.516;2023-08-21T10:09:40;31.40;99.90
4530;DHT22;2277;51.626;7.516;2023-08-21T10:12:09;31.40;99.90
4530;DHT22;2277;51.626;7.516;2023-08-21T10:14:35;31.20;99.90
4530;DHT22;2277;51.626;7.516;2023-08-21T10:17:01;31.30;99.90
4530;DHT22;2277;51.626;7.516;2023-08-21T10:19:31;31.20;99.90
4530;DHT22;2277;51.626;7.516;2023-08-21T10:21:57;31.30;99.90
4530;DHT22;2277;51.626;7.516;2023-08-21T10:24:35;31.20;99.90
4530;DHT22;2277;51.626;7.516;2023-08-21T10:27:06;31.10;99.90
4530;DHT22;2277;51.626;7.516;2023-08-21T10:29:32;31.10;99.90
4530;DHT22;2277;51.626;7.516;2023-08-21T10:32:02;31.10;99.90
4530;DHT22;2277;51.626;7.516;2023-08-21T10:34:35;30.90;99.90
4530;DHT22;2277;51.626;7.516;2023-08-21T10:39:33;30.90;99.90
4530;DHT22;2277;51.626;7.516;2023-08-21T10:47:23;31.20;99.90
4530;DHT22;2277;51.626;7.516;2023-08-21T10:50:03;31.40;99.90
4530;DHT22;2277;51.626;7.516;2023-08-21T10:52:33;31.40;99.90
4530;DHT22;2277;51.626;7.516;2023-08-21T10:55:01;31.50;99.90
4530;DHT22;2277;51.626;7.516;2023-08-21T10:57:32;31.60;99.90
4530;DHT22;2277;51.626;7.516;2023-08-21T10:59:59;31.60;99.90
4530;DHT22;2277;51.626;7.516;2023-08-21T11:02:30;31.60;99.90
4530;DHT22;2277;51.626;7.516;2023-08-21T11:04:55;31.70;99.90
4530;DHT22;2277;51.626;7.516;2023-08-21T11:07:22;31.80;99.90
4530;DHT22;2277;51.626;7.516;2023-08-21T11:09:48;31.80;99.90
4530;DHT22;2277;51.626;7.516;2023-08-21T11:12:24;31.80;99.90
4530;DHT22;2277;51.626;7.516;2023-08-21T11:14:50;31.70;99.90
4530;DHT22;2277;51.626;7.516;2023-08-21T11:17:16;31.60;99.90
4530;DHT22;2277;51.626;7.516;2023-08-21T11:19:44;31.60;99.90
4530;DHT22;2277;51.626;7.516;2023-08-21T11:22:11;31.60;99.90
4530;DHT22;2277;51.626;7.516;2023-08-21T11:27:06;31.70;99.90
4530;DHT22;2277;51.626;7.516;2023-08-21T11:29:39;31.80;99.90
4530;DHT22;2277;51.626;7.516;2023-08-21T11:32:14;32.00;99.90
4530;DHT22;2277;51.626;7.516;2023-08-21T11:34:42;32.20;99.90
4530;DHT22;2277;51.626;7.516;2023-08-21T11:37:09;32.30;99.90
4530;DHT22;2277;51.626;7.516;2023-08-21T11:39:41;32.40;99.90
4530;DHT22;2277;51.626;7.516;2023-08-21T11:42:14;32.50;99.90
4530;DHT22;2277;51.626;7.516;2023-08-21T11:44:47;32.80;99.90
4530;DHT22;2277;51.626;7.516;2023-08-21T11:47:15;32.80;99.90
4530;DHT22;2277;51.626;7.516;2023-08-21T11:49:42;32.90;99.90
4530;DHT22;2277;51.626;7.516;2023-08-21T11:52:09;33.20;99.90
4530;DHT22;2277;51.626;7.516;2023-08-21T11:54:37;33.40;99.90
4530;DHT22;2277;51.626;7.516;2023-08-21T11:57:13;33.50;99.90
4530;DHT22;2277;51.626;7.516;2023-08-21T11:59:39;33.40;99.30
4530;DHT22;2277;51.626;7.516;2023-08-21T12:02:21;33.40;96.20
4530;DHT22;2277;51.626;7.516;2023-08-21T12:04:52;33.40;97.10
4530;DHT22;2277;51.626;7.516;2023-08-21T12:07:18;33.70;99.90
4530;DHT22;2277;51.626;7.516;2023-08-21T12:09:46;33.90;99.90
4530;DHT22;2277;51.626;7.516;2023-08-21T12:12:14;34.10;98.60
4530;DHT22;2277;51.626;7.516;2023-08-21T12:14:40;34.10;99.40
4530;DHT22;2277;51.626;7.516;2023-08-21T12:17:05;34.10;98.80
4530;DHT22;2277;51.626;7.516;2023-08-21T12:19:31;34.10;98.90
4530;DHT22;2277;51.626;7.516;2023-08-21T12:21:56;34.30;99.90
4530;DHT22;2277;51.626;7.516;2023-08-21T12:24:24;34.30;99.40
4530;DHT22;2277;51.626;7.516;2023-08-21T12:26:49;34.30;99.60
4530;DHT22;2277;51.626;7.516;2023-08-21T12:29:15;34.00;95.60
4530;DHT22;2277;51.626;7.516;2023-08-21T12:31:40;33.70;97.10
4530;DHT22;2277;51.626;7.516;2023-08-21T12:34:06;34.00;98.50
4530;DHT22;2277;51.626;7.516;2023-08-21T12:36:35;34.20;98.70
4530;DHT22;2277;51.626;7.516;2023-08-21T12:39:02;34.30;97.00
4530;DHT22;2277;51.626;7.516;2023-08-21T12:41:28;34.50;97.70
4530;DHT22;2277;51.626;7.516;2023-08-21T12:43:53;34.50;98.10
4530;DHT22;2277;51.626;7.516;2023-08-21T12:46:19;34.50;97.00
4530;DHT22;2277;51.626;7.516;2023-08-21T12:48:45;34.50;97.40
4530;DHT22;2277;51.626;7.516;2023-08-21T12:51:10;34.50;97.00
4530;DHT22;2277;51.626;7.516;2023-08-21T12:53:36;34.40;97.00
4530;DHT22;2277;51.626;7.516;2023-08-21T12:56:01;34.30;96.90
4530;DHT22;2277;51.626;7.516;2023-08-21T12:58:29;34.10;97.00
4530;DHT22;2277;51.626;7.516;2023-08-21T13:00:54;34.00;98.10
4530;DHT22;2277;51.626;7.516;2023-08-21T13:03:20;34.10;98.00
4530;DHT22;2277;51.626;7.516;2023-08-21T13:05:45;34.10;97.30
4530;DHT22;2277;51.626;7.516;2023-08-21T13:08:11;34.10;97.30
4530;DHT22;2277;51.626;7.516;2023-08-21T13:10:37;34.30;98.20
4530;DHT22;2277;51.626;7.516;2023-08-21T13:13:02;34.40;96.80
4530;DHT22;2277;51.626;7.516;2023-08-21T13:15:28;34.40;97.00
4530;DHT22;2277;51.626;7.516;2023-08-21T13:17:54;34.50;96.90
4530;DHT22;2277;51.626;7.516;2023-08-21T13:20:20;34.60;95.20
4530;DHT22;2277;51.626;7.516;2023-08-21T13:22:47;34.80;96.00
4530;DHT22;2277;51.626;7.516;2023-08-21T13:25:14;34.90;97.30
4530;DHT22;2277;51.626;7.516;2023-08-21T13:27:40;34.90;95.10
4530;DHT22;2277;51.626;7.516;2023-08-21T13:30:06;35.00;96.40
4530;DHT22;2277;51.626;7.516;2023-08-21T13:32:33;35.10;94.10
4530;DHT22;2277;51.626;7.516;2023-08-21T13:34:59;35.20;95.30
4530;DHT22;2277;51.626;7.516;2023-08-21T13:37:24;35.40;94.50
4530;DHT22;2277;51.626;7.516;2023-08-21T13:39:50;35.60;95.10
4530;DHT22;2277;51.626;7.516;2023-08-21T13:42:15;35.70;95.80
4530;DHT22;2277;51.626;7.516;2023-08-21T13:44:41;35.80;94.90
4530;DHT22;2277;51.626;7.516;2023-08-21T13:47:06;35.90;94.20
4530;DHT22;2277;51.626;7.516;2023-08-21T13:49:32;36.00;93.60
4530;DHT22;2277;51.626;7.516;2023-08-21T13:51:58;36.20;92.00
4530;DHT22;2277;51.626;7.516;2023-08-21T13:54:23;36.10;91.10
4530;DHT22;2277;51.626;7.516;2023-08-21T13:56:49;36.10;91.80
4530;DHT22;2277;51.626;7.516;2023-08-21T13:59:14;36.00;91.60
4530;DHT22;2277;51.626;7.516;2023-08-21T14:01:40;35.90;91.60
4530;DHT22;2277;51.626;7.516;2023-08-21T14:04:05;35.70;91.40
4530;DHT22;2277;51.626;7.516;2023-08-21T14:06:31;35.40;91.60
4530;DHT22;2277;51.626;7.516;2023-08-21T14:08:57;35.20;92.60
4530;DHT22;2277;51.626;7.516;2023-08-21T14:11:22;35.10;93.00
4530;DHT22;2277;51.626;7.516;2023-08-21T14:13:48;35.00;92.40
4530;DHT22;2277;51.626;7.516;2023-08-21T14:16:13;34.90;91.70
4530;DHT22;2277;51.626;7.516;2023-08-21T14:18:39;34.80;92.60
4530;DHT22;2277;51.626;7.516;2023-08-21T14:21:05;34.70;92.40
4530;DHT22;2277;51.626;7.516;2023-08-21T14:23:30;34.50;93.30
4530;DHT22;2277;51.626;7.516;2023-08-21T14:25:56;34.30;93.10
4530;DHT22;2277;51.626;7.516;2023-08-21T14:28:21;34.10;93.70
4530;DHT22;2277;51.626;7.516;2023-08-21T14:30:47;33.90;93.20
4530;DHT22;2277;51.626;7.516;2023-08-21T14:33:13;33.80;93.50
4530;DHT22;2277;51.626;7.516;2023-08-21T14:35:38;33.70;95.20
4530;DHT22;2277;51.626;7.516;2023-08-21T14:38:04;33.50;94.90
4530;DHT22;2277;51.626;7.516;2023-08-21T14:40:29;33.40;94.10
4530;DHT22;2277;51.626;7.516;2023-08-21T14:42:55;33.40;95.20
4530;DHT22;2277;51.626;7.516;2023-08-21T14:45:21;33.30;94.70
4530;DHT22;2277;51.626;7.516;2023-08-21T14:47:46;33.20;94.60
4530;DHT22;2277;51.626;7.516;2023-08-21T14:50:12;33.20;95.30
4530;DHT22;2277;51.626;7.516;2023-08-21T14:52:37;33.10;93.60
4530;DHT22;2277;51.626;7.516;2023-08-21T14:55:03;33.30;97.00
4530;DHT22;2277;51.626;7.516;2023-08-21T14:57:29;33.30;96.20
4530;DHT22;2277;51.626;7.516;2023-08-21T14:59:55;33.40;94.90
4530;DHT22;2277;51.626;7.516;2023-08-21T15:02:20;33.40;94.30
4530;DHT22;2277;51.626;7.516;2023-08-21T15:04:46;33.50;95.50
4530;DHT22;2277;51.626;7.516;2023-08-21T15:07:12;33.60;94.50
4530;DHT22;2277;51.626;7.516;2023-08-21T15:09:37;33.70;94.70
4530;DHT22;2277;51.626;7.516;2023-08-21T15:12:03;33.90;95.60
4530;DHT22;2277;51.626;7.516;2023-08-21T15:14:29;34.00;95.40
4530;DHT22;2277;51.626;7.516;2023-08-21T15:16:54;34.10;94.90
4530;DHT22;2277;51.626;7.516;2023-08-21T15:19:20;34.20;92.00
4530;DHT22;2277;51.626;7.516;2023-08-21T15:21:45;34.20;93.50
4530;DHT22;2277;51.626;7.516;2023-08-21T15:24:11;34.30;94.10
4530;DHT22;2277;51.626;7.516;2023-08-21T15:26:36;34.30;94.00
4530;DHT22;2277;51.626;7.516;2023-08-21T15:29:02;34.30;93.60
4530;DHT22;2277;51.626;7.516;2023-08-21T15:31:28;34.30;93.60
4530;DHT22;2277;51.626;7.516;2023-08-21T15:33:54;34.10;93.30
4530;DHT22;2277;51.626;7.516;2023-08-21T15:36:19;33.80;93.60
4530;DHT22;2277;51.626;7.516;2023-08-21T15:38:45;33.70;94.30
4530;DHT22;2277;51.626;7.516;2023-08-21T15:41:11;33.50;94.30
4530;DHT22;2277;51.626;7.516;2023-08-21T15:43:36;33.40;94.70
4530;DHT22;2277;51.626;7.516;2023-08-21T15:46:05;33.30;94.80
4530;DHT22;2277;51.626;7.516;2023-08-21T15:48:31;33.30;95.50
4530;DHT22;2277;51.626;7.516;2023-08-21T15:50:56;33.10;95.00
4530;DHT22;2277;51.626;7.516;2023-08-21T15:53:22;33.10;95.10
4530;DHT22;2277;51.626;7.516;2023-08-21T15:55:48;33.00;95.10
4530;DHT22;2277;51.626;7.516;2023-08-21T15:58:13;33.00;94.70
4530;DHT22;2277;51.626;7.516;2023-08-21T16:00:39;33.10;95.10
4530;DHT22;2277;51.626;7.516;2023-08-21T16:03:05;33.10;95.40
4530;DHT22;2277;51.626;7.516;2023-08-21T16:05:30;33.10;95.20
4530;DHT22;2277;51.626;7.516;2023-08-21T16:07:56;33.20;94.00